Time;durP1;ratioP1;P1;durP2;ratioP2;P2;SDS_P1;SDS_P2;PMS_P1;PMS_P2;Temp;Humidity;BMP_temperature;BMP_pressure;BME280_temperature;BME280_humidity;BME280_pressure;Samples;Min_cycle;Max_cycle;Signal;HPM_P1;HPM_P2
2022/05/14 00:01:06;;;;;;;;;;;22.20;60.10;;;;;;4917539;29;19947;-63
2022/05/14 00:03:33;;;;;;;;;;;22.20;60.40;;;;;;4917439;29;19970;-62
2022/05/14 00:06:03;;;;;;;;;;;22.10;60.40;;;;;;4917590;29;19915;-63
2022/05/14 00:08:30;;;;;;;;;;;22.20;60.00;;;;;;4917524;29;19933;-62
2022/05/14 00:13:39;;;;;;;;;;;22.20;60.10;;;;;;4917424;29;20068;-61
2022/05/14 00:16:06;;;;;;;;;;;22.30;59.70;;;;;;4917714;29;20017;-63
2022/05/14 00:18:31;;;;;;;;;;;22.20;59.90;;;;;;4917701;29;19919;-62
2022/05/14 00:20:57;;;;;;;;;;;22.10;60.40;;;;;;4917662;29;20263;-64
2022/05/14 00:23:23;;;;;;;;;;;22.20;60.20;;;;;;4917363;29;19912;-63
2022/05/14 00:25:48;;;;;;;;;;;22.30;59.90;;;;;;4917513;29;19911;-63
2022/05/14 00:28:14;;;;;;;;;;;22.20;59.70;;;;;;4917652;29;20002;-63
2022/05/14 00:30:40;;;;;;;;;;;22.30;59.80;;;;;;4917598;29;20006;-63
2022/05/14 00:33:06;;;;;;;;;;;22.10;60.50;;;;;;4917527;29;19911;-64
2022/05/14 00:35:32;;;;;;;;;;;22.10;61.00;;;;;;4917475;29;20370;-64
2022/05/14 00:37:58;;;;;;;;;;;22.00;61.70;;;;;;4917616;29;20351;-63
2022/05/14 00:40:26;;;;;;;;;;;22.00;61.40;;;;;;4917250;29;19919;-63
2022/05/14 00:42:52;;;;;;;;;;;21.90;61.70;;;;;;4917156;29;20287;-63
2022/05/14 00:45:18;;;;;;;;;;;21.90;62.00;;;;;;4917300;29;19917;-63
2022/05/14 00:47:46;;;;;;;;;;;21.90;62.10;;;;;;4919863;29;20430;-64
2022/05/14 00:50:26;;;;;;;;;;;21.90;61.60;;;;;;4921437;29;20047;-64
2022/05/14 00:52:56;;;;;;;;;;;22.00;62.00;;;;;;4921222;29;19911;-64
2022/05/14 00:55:22;;;;;;;;;;;22.00;61.70;;;;;;4921213;29;19951;-63
2022/05/14 00:57:49;;;;;;;;;;;22.00;61.90;;;;;;4921313;29;19918;-63
2022/05/14 01:00:16;;;;;;;;;;;21.90;62.60;;;;;;4920960;29;19946;-64
2022/05/14 01:02:41;;;;;;;;;;;21.90;62.70;;;;;;4921061;29;20294;-63
2022/05/14 01:05:09;;;;;;;;;;;21.90;62.80;;;;;;4920804;29;19915;-63
2022/05/14 01:07:37;;;;;;;;;;;21.80;63.00;;;;;;4920810;29;20010;-62
2022/05/14 01:10:04;;;;;;;;;;;21.60;64.90;;;;;;4920887;29;19920;-63
2022/05/14 01:12:31;;;;;;;;;;;21.50;65.60;;;;;;4904032;29;19915;-62
2022/05/14 01:15:13;;;;;;;;;;;21.50;66.60;;;;;;4921164;29;20380;-63
2022/05/14 01:17:39;;;;;;;;;;;21.50;67.00;;;;;;4920582;29;19912;-64
2022/05/14 01:20:04;;;;;;;;;;;21.40;67.50;;;;;;4920681;29;19918;-63
2022/05/14 01:22:38;;;;;;;;;;;21.20;68.40;;;;;;4920556;29;19912;-62
2022/05/14 01:28:09;;;;;;;;;;;21.30;68.30;;;;;;4921023;29;19922;-63
2022/05/14 01:30:42;;;;;;;;;;;21.20;68.50;;;;;;4920328;29;19923;-63
2022/05/14 01:33:08;;;;;;;;;;;21.10;68.40;;;;;;4920480;29;20327;-63
2022/05/14 01:35:34;;;;;;;;;;;21.10;68.80;;;;;;4920309;29;20395;-62
2022/05/14 01:38:01;;;;;;;;;;;21.00;70.40;;;;;;4920682;29;19921;-64
2022/05/14 01:40:27;;;;;;;;;;;20.90;70.50;;;;;;4920381;29;20004;-63
2022/05/14 01:42:52;;;;;;;;;;;20.80;71.00;;;;;;4920175;29;20415;-63
2022/05/14 01:45:18;;;;;;;;;;;20.80;71.20;;;;;;4920240;29;20313;-63
2022/05/14 01:47:43;;;;;;;;;;;20.80;71.30;;;;;;4920133;29;19934;-62
2022/05/14 01:50:09;;;;;;;;;;;20.80;67.70;;;;;;4920093;29;19941;-63
2022/05/14 01:52:34;;;;;;;;;;;21.20;64.80;;;;;;4920038;29;19937;-62
2022/05/14 01:55:00;;;;;;;;;;;21.50;63.00;;;;;;4919937;29;20339;-63
2022/05/14 01:57:25;;;;;;;;;;;21.70;62.30;;;;;;4919855;29;19912;-62
2022/05/14 01:59:51;;;;;;;;;;;21.80;61.40;;;;;;4919879;29;19917;-62
2022/05/14 02:02:17;;;;;;;;;;;22.00;60.50;;;;;;4919784;29;20375;-62
2022/05/14 02:04:42;;;;;;;;;;;22.10;59.90;;;;;;4919785;29;20001;-63
2022/05/14 02:07:08;;;;;;;;;;;22.20;59.80;;;;;;4919675;29;20451;-63
2022/05/14 02:09:33;;;;;;;;;;;22.30;59.50;;;;;;4919626;29;19930;-63
2022/05/14 02:12:01;;;;;;;;;;;22.30;59.20;;;;;;4919735;29;20062;-63
2022/05/14 02:14:26;;;;;;;;;;;22.40;59.30;;;;;;4919782;29;19966;-62
2022/05/14 02:16:52;;;;;;;;;;;22.30;59.60;;;;;;4919770;29;19915;-63
2022/05/14 02:19:17;;;;;;;;;;;22.20;59.40;;;;;;4919653;29;19911;-63
2022/05/14 02:21:43;;;;;;;;;;;22.30;59.10;;;;;;4919829;29;19911;-63
2022/05/14 02:24:09;;;;;;;;;;;22.30;58.90;;;;;;4919500;29;19997;-63
2022/05/14 02:26:34;;;;;;;;;;;22.20;60.10;;;;;;4919745;29;19915;-62
2022/05/14 02:29:00;;;;;;;;;;;22.10;60.20;;;;;;4919165;29;19978;-63
2022/05/14 02:31:26;;;;;;;;;;;22.10;59.80;;;;;;4919887;29;20006;-64
2022/05/14 02:33:51;;;;;;;;;;;22.10;60.00;;;;;;4902308;29;19911;-63
2022/05/14 02:36:18;;;;;;;;;;;22.20;59.70;;;;;;4919465;29;19919;-62
2022/05/14 02:38:43;;;;;;;;;;;22.20;59.50;;;;;;4919249;29;20119;-62
2022/05/14 02:41:09;;;;;;;;;;;22.20;59.70;;;;;;4919257;29;20132;-63
2022/05/14 02:43:35;;;;;;;;;;;22.20;59.60;;;;;;4919187;29;19915;-63
2022/05/14 02:46:01;;;;;;;;;;;22.10;59.70;;;;;;4919515;29;19912;-62
2022/05/14 02:48:26;;;;;;;;;;;22.20;59.20;;;;;;4919223;29;19911;-62
2022/05/14 02:50:52;;;;;;;;;;;22.20;59.60;;;;;;4919524;29;20455;-62
2022/05/14 02:53:18;;;;;;;;;;;22.20;59.40;;;;;;4919219;29;19911;-62
2022/05/14 02:55:43;;;;;;;;;;;22.30;59.20;;;;;;4919060;29;19916;-62
2022/05/14 02:58:09;;;;;;;;;;;22.30;59.10;;;;;;4919085;29;19911;-63
2022/05/14 03:00:34;;;;;;;;;;;22.30;58.90;;;;;;4919232;29;20005;-62
2022/05/14 03:03:00;;;;;;;;;;;22.30;59.20;;;;;;4919160;29;19922;-62
2022/05/14 03:05:27;;;;;;;;;;;22.20;59.20;;;;;;4919012;29;19912;-63
2022/05/14 03:07:52;;;;;;;;;;;22.10;60.00;;;;;;4919018;29;19923;-62
2022/05/14 03:10:18;;;;;;;;;;;22.10;59.60;;;;;;4918386;29;19927;-62
2022/05/14 03:12:44;;;;;;;;;;;22.00;59.90;;;;;;4918818;29;19911;-63
2022/05/14 03:15:11;;;;;;;;;;;21.90;60.30;;;;;;4918770;29;19915;-63
2022/05/14 03:17:36;;;;;;;;;;;21.90;60.90;;;;;;4918825;29;19911;-62
2022/05/14 03:20:07;;;;;;;;;;;21.90;60.40;;;;;;4918864;29;19911;-62
2022/05/14 03:22:34;;;;;;;;;;;21.90;60.10;;;;;;4918905;29;19911;-63
2022/05/14 03:24:59;;;;;;;;;;;21.90;60.40;;;;;;4918515;29;20457;-63
2022/05/14 03:27:25;;;;;;;;;;;21.80;60.10;;;;;;4918467;29;19911;-63
2022/05/14 03:29:51;;;;;;;;;;;21.80;60.60;;;;;;4918463;29;19919;-63
2022/05/14 03:32:16;;;;;;;;;;;21.80;60.70;;;;;;4918406;29;20279;-62
2022/05/14 03:34:42;;;;;;;;;;;21.80;60.80;;;;;;4918673;29;19919;-61
2022/05/14 03:37:07;;;;;;;;;;;21.80;61.00;;;;;;4918629;29;19922;-63
2022/05/14 03:39:33;;;;;;;;;;;21.80;60.90;;;;;;4918502;29;19918;-63
2022/05/14 03:41:58;;;;;;;;;;;21.70;61.10;;;;;;4918333;29;20001;-63
2022/05/14 03:44:24;;;;;;;;;;;21.80;59.90;;;;;;4918277;29;19943;-63
2022/05/14 03:46:50;;;;;;;;;;;21.80;59.70;;;;;;4918264;29;19915;-64
2022/05/14 03:49:15;;;;;;;;;;;21.80;60.10;;;;;;4918220;29;19922;-63
2022/05/14 03:51:41;;;;;;;;;;;21.80;59.70;;;;;;4918058;29;19911;-63
2022/05/14 03:54:06;;;;;;;;;;;21.80;59.00;;;;;;4918125;29;19914;-62
2022/05/14 03:56:32;;;;;;;;;;;21.80;59.10;;;;;;4918143;29;19927;-63
2022/05/14 03:58:58;;;;;;;;;;;21.80;59.20;;;;;;4918322;29;20308;-63
2022/05/14 04:01:24;;;;;;;;;;;21.80;59.30;;;;;;4918112;29;20284;-64
2022/05/14 04:03:49;;;;;;;;;;;21.90;58.60;;;;;;4918504;29;19915;-62
2022/05/14 04:06:15;;;;;;;;;;;21.90;57.80;;;;;;4918160;29;19915;-62
2022/05/14 04:08:41;;;;;;;;;;;21.90;57.70;;;;;;4917477;29;19999;-64
2022/05/14 04:11:06;;;;;;;;;;;21.90;57.80;;;;;;4917862;29;19918;-61
2022/05/14 04:13:32;;;;;;;;;;;21.90;57.40;;;;;;4917973;29;20352;-62
2022/05/14 04:15:58;;;;;;;;;;;21.80;57.80;;;;;;4917948;29;20283;-62
2022/05/14 04:18:26;;;;;;;;;;;21.80;58.10;;;;;;4917994;29;20390;-62
2022/05/14 04:20:56;;;;;;;;;;;21.80;58.20;;;;;;4917760;29;19911;-63
2022/05/14 04:23:22;;;;;;;;;;;21.80;58.40;;;;;;4917614;29;19911;-63
2022/05/14 04:25:49;;;;;;;;;;;21.80;58.50;;;;;;4917426;29;19941;-62
2022/05/14 04:28:14;;;;;;;;;;;21.90;57.80;;;;;;4917428;29;19918;-63
2022/05/14 04:30:40;;;;;;;;;;;21.80;57.50;;;;;;4917292;29;19923;-64
2022/05/14 04:33:06;;;;;;;;;;;21.90;57.00;;;;;;4917417;29;19911;-63
2022/05/14 04:35:31;;;;;;;;;;;21.90;56.30;;;;;;4917269;29;19911;-63
2022/05/14 04:37:57;;;;;;;;;;;22.00;56.90;;;;;;4917704;29;19966;-64
2022/05/14 04:40:22;;;;;;;;;;;22.00;57.10;;;;;;4917628;29;19922;-63
2022/05/14 04:42:48;;;;;;;;;;;22.00;56.90;;;;;;4917699;29;20348;-63
2022/05/14 04:45:13;;;;;;;;;;;21.90;57.20;;;;;;4917212;29;20297;-63
2022/05/14 04:47:40;;;;;;;;;;;22.00;57.20;;;;;;4917571;29;19919;-63
2022/05/14 04:50:06;;;;;;;;;;;22.00;57.10;;;;;;4917337;29;19941;-64
2022/05/14 04:52:32;;;;;;;;;;;22.00;56.50;;;;;;4917452;29;19911;-64
2022/05/14 04:54:57;;;;;;;;;;;22.10;56.70;;;;;;4917026;29;19963;-63
2022/05/14 04:57:23;;;;;;;;;;;22.00;56.70;;;;;;4917269;29;20323;-63
2022/05/14 04:59:48;;;;;;;;;;;22.00;56.30;;;;;;4917121;29;20360;-63
2022/05/14 05:04:58;;;;;;;;;;;22.00;56.30;;;;;;4917234;29;19938;-62
2022/05/14 05:07:23;;;;;;;;;;;22.10;55.80;;;;;;4917041;29;20368;-63
2022/05/14 05:09:49;;;;;;;;;;;22.10;56.00;;;;;;4917531;29;19987;-64
2022/05/14 05:12:14;;;;;;;;;;;22.10;55.80;;;;;;4917643;29;19911;-65
2022/05/14 05:14:41;;;;;;;;;;;22.00;56.00;;;;;;4917850;29;20404;-63
2022/05/14 05:17:07;;;;;;;;;;;22.10;55.80;;;;;;4917632;29;19918;-63
2022/05/14 05:19:33;;;;;;;;;;;22.00;55.80;;;;;;4917892;29;19959;-63
2022/05/14 05:21:59;;;;;;;;;;;22.00;55.80;;;;;;4917645;29;20308;-63
2022/05/14 05:24:24;;;;;;;;;;;22.00;56.20;;;;;;4917235;29;19911;-63
2022/05/14 05:26:50;;;;;;;;;;;22.10;56.20;;;;;;4917263;29;19938;-62
2022/05/14 05:29:15;;;;;;;;;;;22.10;56.00;;;;;;4917234;29;20290;-63
2022/05/14 05:31:41;;;;;;;;;;;22.10;55.70;;;;;;4917401;29;19927;-62
2022/05/14 05:34:07;;;;;;;;;;;22.20;55.70;;;;;;4920058;29;20339;-63
2022/05/14 05:36:33;;;;;;;;;;;22.30;55.40;;;;;;4920675;29;19911;-63
2022/05/14 05:38:58;;;;;;;;;;;22.40;55.20;;;;;;4920994;29;19918;-64
2022/05/14 05:41:24;;;;;;;;;;;22.50;55.60;;;;;;4921209;29;19915;-62
2022/05/14 05:43:50;;;;;;;;;;;22.50;54.90;;;;;;4920793;29;19938;-60
2022/05/14 05:46:15;;;;;;;;;;;22.70;54.90;;;;;;4920594;29;19912;-61
2022/05/14 05:48:42;;;;;;;;;;;22.80;54.60;;;;;;4920299;29;19911;-58
2022/05/14 05:51:07;;;;;;;;;;;22.90;54.30;;;;;;4920438;29;19966;-62
2022/05/14 05:59:03;;;;;;;;;;;23.20;53.00;;;;;;4920361;29;19919;-61
2022/05/14 06:01:28;;;;;;;;;;;23.20;53.20;;;;;;4920411;29;19911;-60
2022/05/14 06:03:54;;;;;;;;;;;23.20;52.60;;;;;;4920001;29;20269;-61
2022/05/14 06:06:19;;;;;;;;;;;23.10;53.10;;;;;;4920301;29;19967;-62
2022/05/14 06:08:47;;;;;;;;;;;23.10;53.30;;;;;;4919793;29;19923;-61
2022/05/14 06:11:12;;;;;;;;;;;23.10;53.30;;;;;;4919957;29;19922;-61
2022/05/14 06:13:38;;;;;;;;;;;23.10;52.90;;;;;;4919768;29;19911;-68
2022/05/14 06:26:15;;;;;;;;;;;23.20;52.40;;;;;;4937319;29;19981;-59
2022/05/14 06:28:40;;;;;;;;;;;23.30;52.80;;;;;;4938418;29;19914;-58
2022/05/14 06:31:06;;;;;;;;;;;23.20;52.10;;;;;;4955132;29;19922;-58
2022/05/14 06:33:32;;;;;;;;;;;23.30;52.80;;;;;;4956756;29;20005;-63
2022/05/14 06:35:58;;;;;;;;;;;23.40;52.40;;;;;;4957247;29;19960;-61
2022/05/14 06:38:24;;;;;;;;;;;23.60;52.70;;;;;;4957255;29;19950;-62
2022/05/14 06:40:50;;;;;;;;;;;23.80;51.50;;;;;;4957319;29;19910;-63
2022/05/14 06:43:15;;;;;;;;;;;24.00;51.70;;;;;;4957173;29;19934;-62
2022/05/14 06:45:44;;;;;;;;;;;24.20;51.00;;;;;;4955907;28;20267;-62
2022/05/14 06:48:10;;;;;;;;;;;24.10;50.40;;;;;;4957363;29;20268;-66
2022/05/14 06:50:45;;;;;;;;;;;24.10;51.00;;;;;;4957176;29;19927;-66
2022/05/14 06:53:12;;;;;;;;;;;24.10;51.60;;;;;;4956828;29;19942;-61
2022/05/14 06:55:39;;;;;;;;;;;23.90;51.20;;;;;;4957181;29;19949;-62
2022/05/14 06:58:08;;;;;;;;;;;24.00;51.50;;;;;;4956980;29;19911;-61
2022/05/14 07:00:34;;;;;;;;;;;23.80;51.70;;;;;;4946848;29;20370;-62
2022/05/14 07:08:28;;;;;;;;;;;23.80;51.80;;;;;;4937544;29;20385;-62
2022/05/14 07:10:53;;;;;;;;;;;23.60;51.60;;;;;;4937253;29;19919;-63
2022/05/14 07:13:19;;;;;;;;;;;23.60;52.50;;;;;;4937505;29;19997;-61
2022/05/14 07:15:45;;;;;;;;;;;23.70;52.20;;;;;;4947285;29;19914;-62
2022/05/14 07:18:10;;;;;;;;;;;23.80;52.30;;;;;;4946436;29;19958;-62
2022/05/14 07:20:36;;;;;;;;;;;23.80;52.00;;;;;;4946852;29;19915;-64
2022/05/14 07:23:02;;;;;;;;;;;23.70;52.10;;;;;;4946144;29;19910;-63
2022/05/14 07:25:27;;;;;;;;;;;23.60;52.40;;;;;;4945545;29;19923;-64
2022/05/14 07:27:53;;;;;;;;;;;23.60;52.30;;;;;;4947615;29;19938;-66
2022/05/14 07:30:20;;;;;;;;;;;23.70;52.50;;;;;;4947248;29;20282;-68
2022/05/14 07:32:46;;;;;;;;;;;23.70;52.20;;;;;;4948217;29;20433;-64
2022/05/14 07:35:11;;;;;;;;;;;23.80;52.40;;;;;;4945027;29;19942;-60
2022/05/14 07:37:41;;;;;;;;;;;23.90;52.10;;;;;;4946395;29;19965;-60
2022/05/14 07:40:09;;;;;;;;;;;23.90;51.80;;;;;;4947050;29;20288;-61
2022/05/14 07:42:55;;;;;;;;;;;24.00;51.70;;;;;;4942933;29;19911;-63
2022/05/14 07:45:23;;;;;;;;;;;23.90;52.50;;;;;;4944568;29;19915;-63
2022/05/14 07:47:49;;;;;;;;;;;24.00;52.30;;;;;;4945081;29;19918;-65
2022/05/14 07:50:14;;;;;;;;;;;24.10;51.60;;;;;;4946734;29;19918;-63
2022/05/14 07:52:40;;;;;;;;;;;24.20;51.80;;;;;;4954249;29;19911;-60
2022/05/14 07:55:06;;;;;;;;;;;24.40;51.20;;;;;;4955871;28;19910;-62
2022/05/14 07:57:32;;;;;;;;;;;24.70;50.90;;;;;;4955966;29;19977;-66
2022/05/14 07:59:58;;;;;;;;;;;24.80;50.00;;;;;;4956197;29;19934;-61
2022/05/14 08:02:31;;;;;;;;;;;24.90;49.50;;;;;;4956353;29;19915;-62
2022/05/14 08:05:02;;;;;;;;;;;25.00;49.50;;;;;;4955916;29;20269;-65
2022/05/14 08:07:28;;;;;;;;;;;24.90;50.10;;;;;;4955883;29;19910;-61
2022/05/14 08:09:54;;;;;;;;;;;24.90;50.10;;;;;;4955910;29;20282;-60
2022/05/14 08:12:19;;;;;;;;;;;24.90;50.20;;;;;;4955838;29;20282;-60
2022/05/14 08:14:45;;;;;;;;;;;25.00;49.50;;;;;;4955702;29;20285;-60
2022/05/14 08:17:11;;;;;;;;;;;25.10;49.10;;;;;;4955966;29;19914;-62
2022/05/14 08:19:37;;;;;;;;;;;25.20;49.60;;;;;;4955774;29;19914;-61
2022/05/14 08:24:48;;;;;;;;;;;25.60;47.70;;;;;;4955744;29;20028;-62
2022/05/14 08:27:13;;;;;;;;;;;25.60;47.80;;;;;;4955570;29;20393;-68
2022/05/14 08:29:39;;;;;;;;;;;25.80;47.30;;;;;;4955654;29;19941;-61
2022/05/14 08:32:05;;;;;;;;;;;25.70;48.50;;;;;;4955393;29;19914;-60
2022/05/14 08:34:31;;;;;;;;;;;25.80;47.10;;;;;;4955458;29;19961;-60
2022/05/14 08:36:57;;;;;;;;;;;25.90;47.70;;;;;;4955705;29;19917;-61
2022/05/14 08:39:23;;;;;;;;;;;26.10;46.70;;;;;;4955320;29;19950;-58
2022/05/14 08:41:50;;;;;;;;;;;26.00;45.60;;;;;;4955216;29;19942;-59
2022/05/14 08:44:21;;;;;;;;;;;26.20;45.40;;;;;;4938059;29;19926;-58
2022/05/14 08:46:52;;;;;;;;;;;26.30;46.50;;;;;;4955544;29;19911;-62
2022/05/14 08:49:22;;;;;;;;;;;26.30;45.50;;;;;;4955365;29;19918;-59
2022/05/14 08:51:49;;;;;;;;;;;26.30;45.60;;;;;;4944388;29;19950;-58
2022/05/14 08:54:15;;;;;;;;;;;26.20;46.10;;;;;;4946178;29;19926;-74
2022/05/14 08:56:43;;;;;;;;;;;26.20;46.50;;;;;;4943524;29;19915;-57
2022/05/14 08:59:27;;;;;;;;;;;26.20;45.60;;;;;;4955014;29;19953;-62
2022/05/14 09:01:58;;;;;;;;;;;26.40;45.20;;;;;;4955231;29;19911;-57
2022/05/14 09:04:24;;;;;;;;;;;26.50;46.40;;;;;;4955089;29;19911;-58
2022/05/14 09:06:50;;;;;;;;;;;26.50;44.90;;;;;;4954788;28;19910;-60
2022/05/14 09:09:16;;;;;;;;;;;26.60;44.40;;;;;;4958693;29;19985;-60
2022/05/14 09:11:51;;;;;;;;;;;26.50;43.30;;;;;;4958925;29;19915;-61
2022/05/14 09:14:38;;;;;;;;;;;26.60;43.40;;;;;;4958772;29;20393;-62
2022/05/14 09:17:20;;;;;;;;;;;26.60;43.50;;;;;;4958387;29;20401;-65
2022/05/14 09:19:46;;;;;;;;;;;26.60;43.30;;;;;;4959008;29;20318;-64
2022/05/14 09:22:32;;;;;;;;;;;26.80;43.10;;;;;;4958681;29;19969;-65
2022/05/14 09:25:04;;;;;;;;;;;26.80;42.90;;;;;;4944999;29;19950;-65
2022/05/14 09:27:48;;;;;;;;;;;27.00;43.10;;;;;;4958607;29;20378;-66
2022/05/14 09:30:23;;;;;;;;;;;26.80;42.30;;;;;;4958482;29;19973;-65
2022/05/14 09:32:49;;;;;;;;;;;26.90;42.80;;;;;;4958620;29;19910;-67
2022/05/14 09:35:14;;;;;;;;;;;26.80;41.80;;;;;;4958472;29;20259;-65
2022/05/14 09:37:41;;;;;;;;;;;26.70;42.10;;;;;;4958490;29;19918;-67
2022/05/14 09:40:12;;;;;;;;;;;26.60;42.60;;;;;;4958194;29;19941;-66
2022/05/14 09:42:38;;;;;;;;;;;26.50;42.20;;;;;;4958326;29;19918;-65
2022/05/14 09:45:15;;;;;;;;;;;26.60;42.30;;;;;;4958313;29;19973;-64
2022/05/14 09:47:40;;;;;;;;;;;26.70;42.20;;;;;;4958382;29;20089;-64
2022/05/14 09:50:07;;;;;;;;;;;26.50;42.10;;;;;;4958204;29;19966;-64
2022/05/14 09:52:34;;;;;;;;;;;26.50;42.80;;;;;;4957966;29;19974;-67
2022/05/14 09:55:03;;;;;;;;;;;26.60;44.00;;;;;;4958439;29;20010;-65
2022/05/14 09:57:29;;;;;;;;;;;26.80;43.30;;;;;;4941594;29;20338;-65
2022/05/14 10:00:06;;;;;;;;;;;27.00;41.50;;;;;;4958268;29;19911;-65
2022/05/14 10:02:41;;;;;;;;;;;27.30;42.60;;;;;;4958080;29;20321;-64
2022/05/14 10:05:07;;;;;;;;;;;27.30;42.10;;;;;;4957644;29;20418;-64
2022/05/14 10:07:53;;;;;;;;;;;27.50;41.80;;;;;;4958100;29;20010;-64
2022/05/14 10:10:19;;;;;;;;;;;27.50;41.10;;;;;;4957654;29;19919;-65
2022/05/14 10:12:48;;;;;;;;;;;27.50;39.90;;;;;;4957351;29;20357;-64
2022/05/14 10:15:13;;;;;;;;;;;27.50;40.10;;;;;;4941873;29;20331;-64
2022/05/14 10:17:39;;;;;;;;;;;27.50;40.40;;;;;;4938511;29;19911;-65
2022/05/14 10:20:05;;;;;;;;;;;27.40;40.10;;;;;;4938128;29;19915;-64
2022/05/14 10:28:14;;;;;;;;;;;27.60;40.60;;;;;;4938578;29;19929;-68
2022/05/14 10:30:40;;;;;;;;;;;27.50;39.70;;;;;;4938211;29;19919;-65
2022/05/14 10:33:07;;;;;;;;;;;27.60;39.60;;;;;;4938214;29;19941;-66
2022/05/14 10:35:38;;;;;;;;;;;27.60;40.20;;;;;;4938321;29;19975;-67
2022/05/14 10:38:03;;;;;;;;;;;27.50;39.40;;;;;;4938219;29;19918;-67
2022/05/14 10:40:29;;;;;;;;;;;27.70;39.90;;;;;;4938107;29;19911;-65
2022/05/14 10:42:59;;;;;;;;;;;27.90;39.50;;;;;;4937977;29;19911;-67
2022/05/14 10:45:37;;;;;;;;;;;28.10;37.90;;;;;;4938336;29;19918;-65
2022/05/14 10:48:03;;;;;;;;;;;27.70;39.00;;;;;;4921015;29;20006;-65
2022/05/14 10:50:29;;;;;;;;;;;27.70;40.20;;;;;;4938077;29;20021;-65
2022/05/14 10:52:55;;;;;;;;;;;27.80;42.10;;;;;;4938096;29;20307;-65
2022/05/14 10:55:33;;;;;;;;;;;28.10;47.30;;;;;;4937696;29;19915;-65
2022/05/14 10:58:04;;;;;;;;;;;27.90;48.10;;;;;;4938049;29;19911;-65
2022/05/14 11:00:30;;;;;;;;;;;27.70;48.10;;;;;;4938034;29;19911;-65
2022/05/14 11:02:57;;;;;;;;;;;27.30;47.50;;;;;;4937756;29;19911;-65
2022/05/14 11:05:31;;;;;;;;;;;27.20;47.50;;;;;;4937654;29;19964;-65
2022/05/14 11:08:06;;;;;;;;;;;27.00;47.50;;;;;;4937607;29;19958;-70
2022/05/14 11:10:34;;;;;;;;;;;26.90;47.80;;;;;;4937627;29;19926;-64
2022/05/14 11:13:29;;;;;;;;;;;26.70;48.20;;;;;;4937717;29;20047;-68
2022/05/14 11:15:58;;;;;;;;;;;26.70;50.10;;;;;;4925194;29;19911;-69
2022/05/14 11:18:24;;;;;;;;;;;27.10;50.10;;;;;;4937465;29;19922;-63
2022/05/14 11:21:00;;;;;;;;;;;27.30;49.70;;;;;;4937718;29;19911;-70
2022/05/14 11:23:26;;;;;;;;;;;27.60;49.00;;;;;;4937389;29;19915;-71
2022/05/14 11:26:04;;;;;;;;;;;27.80;47.20;;;;;;4937490;29;19922;-63
2022/05/14 11:28:30;;;;;;;;;;;27.80;46.80;;;;;;4937376;29;19950;-70
2022/05/14 11:31:08;;;;;;;;;;;27.60;47.70;;;;;;4936392;29;19923;-70
2022/05/14 11:33:34;;;;;;;;;;;27.60;48.20;;;;;;4937277;29;20458;-68
2022/05/14 11:36:01;;;;;;;;;;;27.80;46.90;;;;;;4937231;29;19950;-66
2022/05/14 11:38:26;;;;;;;;;;;27.70;46.50;;;;;;4920068;29;19914;-65
2022/05/14 11:40:58;;;;;;;;;;;27.30;46.70;;;;;;4936326;29;20215;-67
2022/05/14 11:43:36;;;;;;;;;;;27.30;47.80;;;;;;4937246;29;20282;-64
2022/05/14 11:46:04;;;;;;;;;;;26.70;47.20;;;;;;4937258;29;19919;-67
2022/05/14 11:48:34;;;;;;;;;;;27.00;47.80;;;;;;4937197;29;19911;-64
2022/05/14 11:51:32;;;;;;;;;;;27.20;47.90;;;;;;4937051;29;19919;-65
2022/05/14 11:54:08;;;;;;;;;;;27.50;46.80;;;;;;4904791;29;20308;-66
2022/05/14 11:56:40;;;;;;;;;;;27.70;46.60;;;;;;4936908;29;20264;-67
2022/05/14 11:59:21;;;;;;;;;;;27.80;46.00;;;;;;4936742;29;20422;-67
2022/05/14 12:01:49;;;;;;;;;;;28.00;45.60;;;;;;4936670;29;20355;-68
2022/05/14 12:04:19;;;;;;;;;;;28.00;45.10;;;;;;4936991;29;20001;-69
2022/05/14 12:07:03;;;;;;;;;;;28.10;45.00;;;;;;4936762;29;19967;-63
2022/05/14 12:09:34;;;;;;;;;;;28.20;45.00;;;;;;4936697;29;19922;-65
2022/05/14 12:12:06;;;;;;;;;;;28.20;45.60;;;;;;4936577;29;20028;-63
2022/05/14 12:14:33;;;;;;;;;;;28.20;46.10;;;;;;4936643;29;19922;-64
2022/05/14 12:16:59;;;;;;;;;;;27.80;44.70;;;;;;4919762;29;20267;-64
2022/05/14 12:19:33;;;;;;;;;;;27.30;46.90;;;;;;4919857;29;20287;-67
2022/05/14 12:22:01;;;;;;;;;;;27.50;47.30;;;;;;4936488;29;19918;-65
2022/05/14 12:24:31;;;;;;;;;;;27.70;46.30;;;;;;4919222;29;19954;-65
2022/05/14 12:26:57;;;;;;;;;;;27.90;46.20;;;;;;4935533;29;19934;-65
2022/05/14 12:29:28;;;;;;;;;;;28.00;46.20;;;;;;4935833;29;20363;-65
2022/05/14 12:34:43;;;;;;;;;;;28.20;45.80;;;;;;4935866;29;19918;-68
2022/05/14 12:37:20;;;;;;;;;;;28.20;45.30;;;;;;4935402;29;20375;-65
2022/05/14 12:39:48;;;;;;;;;;;28.20;44.70;;;;;;4935674;29;20434;-66
2022/05/14 12:42:14;;;;;;;;;;;28.30;44.60;;;;;;4936693;29;20426;-64
2022/05/14 12:44:44;;;;;;;;;;;27.70;45.00;;;;;;4938933;29;20323;-66
2022/05/14 12:47:10;;;;;;;;;;;27.60;46.60;;;;;;4939233;29;19911;-64
2022/05/14 12:49:43;;;;;;;;;;;27.60;45.60;;;;;;4938951;29;19922;-65
2022/05/14 12:52:17;;;;;;;;;;;27.40;45.90;;;;;;4938830;29;19911;-63
2022/05/14 12:54:49;;;;;;;;;;;27.50;46.30;;;;;;4939000;29;20370;-66
2022/05/14 12:57:15;;;;;;;;;;;27.70;45.40;;;;;;4939098;29;19966;-64
2022/05/14 12:59:40;;;;;;;;;;;27.50;45.30;;;;;;4938847;29;20002;-65
2022/05/14 13:02:18;;;;;;;;;;;27.60;45.60;;;;;;4938718;29;19943;-66
2022/05/14 13:04:48;;;;;;;;;;;27.30;46.50;;;;;;4938936;29;20355;-67
2022/05/14 13:07:14;;;;;;;;;;;27.00;46.10;;;;;;4939029;29;20281;-66
2022/05/14 13:09:40;;;;;;;;;;;27.10;46.80;;;;;;4938657;29;20014;-67
2022/05/14 13:12:06;;;;;;;;;;;27.30;46.30;;;;;;4938819;29;20006;-65
2022/05/14 13:14:33;;;;;;;;;;;27.50;46.60;;;;;;4938727;29;19945;-67
2022/05/14 13:17:01;;;;;;;;;;;27.60;46.10;;;;;;4938580;29;19966;-68
2022/05/14 13:19:37;;;;;;;;;;;27.60;46.90;;;;;;4938483;29;19917;-68
2022/05/14 13:22:04;;;;;;;;;;;27.60;46.10;;;;;;4938458;29;19918;-64
2022/05/14 13:24:31;;;;;;;;;;;27.30;46.20;;;;;;4873811;29;1895701;-64
2022/05/14 13:27:01;;;;;;;;;;;27.20;47.10;;;;;;4939556;29;19997;-65
2022/05/14 13:29:30;;;;;;;;;;;26.30;48.50;;;;;;4939361;29;19930;-63
2022/05/14 13:32:08;;;;;;;;;;;26.70;48.70;;;;;;4939589;29;20250;-64
2022/05/14 13:37:23;;;;;;;;;;;27.00;48.40;;;;;;4939751;29;19918;-65
2022/05/14 13:39:50;;;;;;;;;;;27.00;48.00;;;;;;4922557;29;19911;-64
2022/05/14 13:42:18;;;;;;;;;;;27.00;48.20;;;;;;4939941;29;19911;-66
2022/05/14 13:44:46;;;;;;;;;;;26.90;48.50;;;;;;4941901;29;19914;-64
2022/05/14 13:47:15;;;;;;;;;;;26.70;47.80;;;;;;4939194;29;19914;-64
2022/05/14 13:49:42;;;;;;;;;;;26.60;48.50;;;;;;4941214;29;19978;-64
2022/05/14 13:52:07;;;;;;;;;;;26.40;48.00;;;;;;4941858;29;20381;-64
2022/05/14 13:54:38;;;;;;;;;;;26.40;48.20;;;;;;4939299;29;19911;-63
2022/05/14 13:57:03;;;;;;;;;;;26.70;49.30;;;;;;4939107;29;20006;-65
2022/05/14 13:59:38;;;;;;;;;;;26.90;47.90;;;;;;4939496;29;19946;-64
2022/05/14 14:02:07;;;;;;;;;;;27.00;47.60;;;;;;4939281;29;19918;-64
2022/05/14 14:04:33;;;;;;;;;;;26.60;46.60;;;;;;4939209;29;19926;-64
2022/05/14 14:07:01;;;;;;;;;;;26.20;47.70;;;;;;4938824;29;19915;-65
2022/05/14 14:09:27;;;;;;;;;;;25.60;48.90;;;;;;4938964;29;19926;-65
2022/05/14 14:11:52;;;;;;;;;;;25.80;49.20;;;;;;4938788;29;19954;-67
2022/05/14 14:14:18;;;;;;;;;;;25.70;49.40;;;;;;4938825;29;19958;-66
2022/05/14 14:16:43;;;;;;;;;;;25.80;49.20;;;;;;4938895;29;19918;-64
2022/05/14 14:19:09;;;;;;;;;;;25.70;48.50;;;;;;4938706;29;19911;-64
2022/05/14 14:21:35;;;;;;;;;;;25.80;49.30;;;;;;4938616;29;19937;-63
2022/05/14 14:24:01;;;;;;;;;;;26.00;48.80;;;;;;4938868;29;19933;-64
2022/05/14 14:26:26;;;;;;;;;;;26.00;48.20;;;;;;4938441;29;19923;-65
2022/05/14 14:28:52;;;;;;;;;;;26.10;48.30;;;;;;4938257;29;20248;-65
2022/05/14 14:31:19;;;;;;;;;;;26.10;47.90;;;;;;4938365;29;20264;-65
2022/05/14 14:33:46;;;;;;;;;;;26.00;47.30;;;;;;4938142;29;19910;-65
2022/05/14 14:36:12;;;;;;;;;;;26.00;48.30;;;;;;4938161;29;20393;-65
2022/05/14 14:38:38;;;;;;;;;;;26.00;46.40;;;;;;4938302;29;19915;-66
2022/05/14 14:41:04;;;;;;;;;;;25.70;47.20;;;;;;4937885;29;20328;-64
2022/05/14 14:43:29;;;;;;;;;;;25.70;47.80;;;;;;4938138;29;19910;-66
2022/05/14 14:45:55;;;;;;;;;;;25.60;48.30;;;;;;4938314;29;19963;-66
2022/05/14 14:48:21;;;;;;;;;;;25.70;47.60;;;;;;4937910;29;20527;-66
2022/05/14 14:50:47;;;;;;;;;;;25.90;48.00;;;;;;4937665;29;20014;-64
2022/05/14 14:53:12;;;;;;;;;;;26.00;47.30;;;;;;4937938;29;20392;-66
2022/05/14 14:55:38;;;;;;;;;;;26.00;47.40;;;;;;4937886;29;20256;-66
2022/05/14 14:58:04;;;;;;;;;;;26.20;48.20;;;;;;4938006;29;19918;-66
2022/05/14 15:00:32;;;;;;;;;;;26.30;47.00;;;;;;4937787;29;19915;-63
2022/05/14 15:02:58;;;;;;;;;;;26.40;46.70;;;;;;4937743;29;19911;-63